sensor_id;sensor_type;location;lat;lon;timestamp;pressure;altitude;pressure_sealevel;temperature
67509;BMP280;54354;44.724;11.284;2023-03-01T00:01:25;101949.06;;;12.55
67509;BMP280;54354;44.724;11.284;2023-03-01T00:03:52;101948.66;;;12.56
67509;BMP280;54354;44.724;11.284;2023-03-01T00:06:19;101933.88;;;12.48
67509;BMP280;54354;44.724;11.284;2023-03-01T00:08:45;101939.97;;;12.49
67509;BMP280;54354;44.724;11.284;2023-03-01T00:13:41;101939.63;;;12.46
67509;BMP280;54354;44.724;11.284;2023-03-01T00:16:11;101940.00;;;12.38
67509;BMP280;54354;44.724;11.284;2023-03-01T00:18:37;101941.88;;;12.41
67509;BMP280;54354;44.724;11.284;2023-03-01T00:21:02;101934.75;;;12.31
67509;BMP280;54354;44.724;11.284;2023-03-01T00:23:28;101936.25;;;12.28
67509;BMP280;54354;44.724;11.284;2023-03-01T00:25:54;101940.44;;;12.22
67509;BMP280;54354;44.724;11.284;2023-03-01T00:28:21;101934.00;;;12.19
67509;BMP280;54354;44.724;11.284;2023-03-01T00:30:46;101940.84;;;12.17
67509;BMP280;54354;44.724;11.284;2023-03-01T00:33:12;101934.78;;;12.16
67509;BMP280;54354;44.724;11.284;2023-03-01T00:35:38;101932.88;;;12.17
67509;BMP280;54354;44.724;11.284;2023-03-01T00:38:04;101932.09;;;12.20
67509;BMP280;54354;44.724;11.284;2023-03-01T00:40:33;101928.69;;;12.23
67509;BMP280;54354;44.724;11.284;2023-03-01T00:43:00;101932.81;;;12.38
67509;BMP280;54354;44.724;11.284;2023-03-01T00:45:26;101930.16;;;12.35
67509;BMP280;54354;44.724;11.284;2023-03-01T00:47:52;101925.97;;;12.37
67509;BMP280;54354;44.724;11.284;2023-03-01T00:50:18;101914.94;;;12.42
67509;BMP280;54354;44.724;11.284;2023-03-01T00:52:44;101913.81;;;12.43
67509;BMP280;54354;44.724;11.284;2023-03-01T00:55:11;101914.56;;;12.44
67509;BMP280;54354;44.724;11.284;2023-03-01T00:57:37;101914.94;;;12.46
67509;BMP280;54354;44.724;11.284;2023-03-01T01:00:05;101906.19;;;12.42
67509;BMP280;54354;44.724;11.284;2023-03-01T01:02:32;101902.78;;;12.45
67509;BMP280;54354;44.724;11.284;2023-03-01T01:04:59;101905.03;;;12.54
67509;BMP280;54354;44.724;11.284;2023-03-01T01:07:25;101894.38;;;12.61
67509;BMP280;54354;44.724;11.284;2023-03-01T01:09:50;101891.28;;;12.66
67509;BMP280;54354;44.724;11.284;2023-03-01T01:12:16;101900.00;;;12.70
67509;BMP280;54354;44.724;11.284;2023-03-01T01:14:41;101894.66;;;12.73
67509;BMP280;54354;44.724;11.284;2023-03-01T01:17:08;101897.28;;;12.77
67509;BMP280;54354;44.724;11.284;2023-03-01T01:19:33;101887.03;;;12.79
67509;BMP280;54354;44.724;11.284;2023-03-01T01:21:59;101888.94;;;12.82
67509;BMP280;54354;44.724;11.284;2023-03-01T01:24:24;101880.91;;;12.86
67509;BMP280;54354;44.724;11.284;2023-03-01T01:26:50;101873.31;;;12.88
67509;BMP280;54354;44.724;11.284;2023-03-01T01:29:15;101875.56;;;12.89
67509;BMP280;54354;44.724;11.284;2023-03-01T01:31:42;101865.34;;;12.88
67509;BMP280;54354;44.724;11.284;2023-03-01T01:34:13;101850.16;;;12.85
67509;BMP280;54354;44.724;11.284;2023-03-01T01:36:39;101871.38;;;12.92
67509;BMP280;54354;44.724;11.284;2023-03-01T01:39:05;101872.88;;;12.93
67509;BMP280;54354;44.724;11.284;2023-03-01T01:41:31;101869.88;;;12.91
67509;BMP280;54354;44.724;11.284;2023-03-01T01:49:42;101857.56;;;13.08
67509;BMP280;54354;44.724;11.284;2023-03-01T01:52:25;101855.81;;;12.94
67509;BMP280;54354;44.724;11.284;2023-03-01T01:57:24;101843.28;;;12.91
67509;BMP280;54354;44.724;11.284;2023-03-01T01:59:53;101844.09;;;12.88
67509;BMP280;54354;44.724;11.284;2023-03-01T02:02:20;101844.41;;;12.90
67509;BMP280;54354;44.724;11.284;2023-03-01T02:04:47;101838.38;;;12.86
67509;BMP280;54354;44.724;11.284;2023-03-01T02:07:19;101841.00;;;12.89
67509;BMP280;54354;44.724;11.284;2023-03-01T02:09:47;101827.75;;;12.86
67509;BMP280;54354;44.724;11.284;2023-03-01T02:12:15;101838.34;;;12.89
67509;BMP280;54354;44.724;11.284;2023-03-01T02:14:42;101834.53;;;12.94
67509;BMP280;54354;44.724;11.284;2023-03-01T02:17:10;101822.38;;;12.93
67509;BMP280;54354;44.724;11.284;2023-03-01T02:20:14;101820.78;;;12.99
67509;BMP280;54354;44.724;11.284;2023-03-01T02:22:33;101813.59;;;12.99
67509;BMP280;54354;44.724;11.284;2023-03-01T02:27:36;101814.78;;;12.95
67509;BMP280;54354;44.724;11.284;2023-03-01T02:30:02;101818.91;;;12.99
67509;BMP280;54354;44.724;11.284;2023-03-01T02:32:28;101815.88;;;12.97
67509;BMP280;54354;44.724;11.284;2023-03-01T02:34:55;101797.69;;;12.92
67509;BMP280;54354;44.724;11.284;2023-03-01T02:37:21;101795.41;;;12.94
67509;BMP280;54354;44.724;11.284;2023-03-01T02:39:58;101802.28;;;12.88
67509;BMP280;54354;44.724;11.284;2023-03-01T02:42:32;101796.22;;;12.88
67509;BMP280;54354;44.724;11.284;2023-03-01T02:44:59;101794.28;;;12.92
67509;BMP280;54354;44.724;11.284;2023-03-01T02:47:24;101798.41;;;12.96
67509;BMP280;54354;44.724;11.284;2023-03-01T02:49:50;101782.81;;;12.98
67509;BMP280;54354;44.724;11.284;2023-03-01T02:55:21;101775.47;;;13.13
67509;BMP280;54354;44.724;11.284;2023-03-01T02:57:48;101776.75;;;12.98
67509;BMP280;54354;44.724;11.284;2023-03-01T03:00:21;101769.53;;;12.98
67509;BMP280;54354;44.724;11.284;2023-03-01T03:02:49;101768.78;;;12.98
67509;BMP280;54354;44.724;11.284;2023-03-01T03:05:20;101761.63;;;12.91
67509;BMP280;54354;44.724;11.284;2023-03-01T03:07:49;101765.41;;;12.94
67509;BMP280;54354;44.724;11.284;2023-03-01T03:12:52;101765.91;;;12.82
67509;BMP280;54354;44.724;11.284;2023-03-01T03:15:18;101769.63;;;12.84
67509;BMP280;54354;44.724;11.284;2023-03-01T03:17:44;101761.72;;;12.81
67509;BMP280;54354;44.724;11.284;2023-03-01T03:20:11;101753.75;;;12.77
67509;BMP280;54354;44.724;11.284;2023-03-01T03:22:38;101754.91;;;12.80
67509;BMP280;54354;44.724;11.284;2023-03-01T03:25:06;101749.16;;;12.81
67509;BMP280;54354;44.724;11.284;2023-03-01T03:27:36;101750.88;;;13.40
67509;BMP280;54354;44.724;11.284;2023-03-01T03:30:01;101755.84;;;13.00
67509;BMP280;54354;44.724;11.284;2023-03-01T03:32:27;101754.81;;;12.87
67509;BMP280;54354;44.724;11.284;2023-03-01T03:34:52;101755.28;;;12.82
67509;BMP280;54354;44.724;11.284;2023-03-01T03:37:18;101759.81;;;12.81
67509;BMP280;54354;44.724;11.284;2023-03-01T03:40:12;101750.28;;;12.84
67509;BMP280;54354;44.724;11.284;2023-03-01T03:42:41;101743.13;;;12.77
67509;BMP280;54354;44.724;11.284;2023-03-01T03:45:06;101742.03;;;12.75
67509;BMP280;54354;44.724;11.284;2023-03-01T03:47:32;101742.03;;;12.75
67509;BMP280;54354;44.724;11.284;2023-03-01T03:49:58;101739.72;;;12.77
67509;BMP280;54354;44.724;11.284;2023-03-01T03:52:23;101732.13;;;12.79
67509;BMP280;54354;44.724;11.284;2023-03-01T03:54:49;101736.66;;;12.78
67509;BMP280;54354;44.724;11.284;2023-03-01T03:57:14;101735.88;;;12.81
67509;BMP280;54354;44.724;11.284;2023-03-01T03:59:40;101738.53;;;12.81
67509;BMP280;54354;44.724;11.284;2023-03-01T04:02:05;101724.91;;;12.79
67509;BMP280;54354;44.724;11.284;2023-03-01T04:04:34;101727.19;;;12.77
67509;BMP280;54354;44.724;11.284;2023-03-01T04:06:59;101721.16;;;12.73
67509;BMP280;54354;44.724;11.284;2023-03-01T04:09:25;101726.91;;;12.68
67509;BMP280;54354;44.724;11.284;2023-03-01T04:11:50;101723.50;;;12.67
67509;BMP280;54354;44.724;11.284;2023-03-01T04:14:16;101726.91;;;12.68
67509;BMP280;54354;44.724;11.284;2023-03-01T04:16:42;101728.81;;;12.67
67509;BMP280;54354;44.724;11.284;2023-03-01T04:19:07;101731.84;;;12.66
67509;BMP280;54354;44.724;11.284;2023-03-01T04:21:34;101728.81;;;12.64
67509;BMP280;54354;44.724;11.284;2023-03-01T04:24:01;101729.19;;;12.62
67509;BMP280;54354;44.724;11.284;2023-03-01T04:26:29;101726.94;;;12.64
67509;BMP280;54354;44.724;11.284;2023-03-01T04:28:54;101719.69;;;12.68
67509;BMP280;54354;44.724;11.284;2023-03-01T04:31:20;101730.66;;;12.70
67509;BMP280;54354;44.724;11.284;2023-03-01T04:33:53;101729.16;;;12.69
67509;BMP280;54354;44.724;11.284;2023-03-01T04:36:21;101719.69;;;12.68
67509;BMP280;54354;44.724;11.284;2023-03-01T04:38:48;101724.94;;;12.72
67509;BMP280;54354;44.724;11.284;2023-03-01T04:41:15;101717.03;;;12.68
67509;BMP280;54354;44.724;11.284;2023-03-01T04:43:41;101726.50;;;12.69
67509;BMP280;54354;44.724;11.284;2023-03-01T04:46:08;101712.44;;;12.69
67509;BMP280;54354;44.724;11.284;2023-03-01T04:48:36;101714.72;;;12.70
67509;BMP280;54354;44.724;11.284;2023-03-01T04:51:02;101721.19;;;12.69
67509;BMP280;54354;44.724;11.284;2023-03-01T04:53:29;101725.72;;;12.69
67509;BMP280;54354;44.724;11.284;2023-03-01T04:55:55;101728.06;;;12.67
67509;BMP280;54354;44.724;11.284;2023-03-01T04:58:26;101721.22;;;12.62
67509;BMP280;54354;44.724;11.284;2023-03-01T05:00:52;101724.25;;;12.68
67509;BMP280;54354;44.724;11.284;2023-03-01T05:03:19;101730.31;;;12.68
67509;BMP280;54354;44.724;11.284;2023-03-01T05:05:46;101725.78;;;12.65
67509;BMP280;54354;44.724;11.284;2023-03-01T05:08:13;101725.41;;;12.67
67509;BMP280;54354;44.724;11.284;2023-03-01T05:10:52;101720.84;;;12.64
67509;BMP280;54354;44.724;11.284;2023-03-01T05:13:19;101719.69;;;12.65
67509;BMP280;54354;44.724;11.284;2023-03-01T05:15:53;101717.78;;;12.65
67509;BMP280;54354;44.724;11.284;2023-03-01T05:18:19;101719.28;;;12.70
67509;BMP280;54354;44.724;11.284;2023-03-01T05:20:45;101705.59;;;12.71
67509;BMP280;54354;44.724;11.284;2023-03-01T05:23:10;101712.03;;;12.74
67509;BMP280;54354;44.724;11.284;2023-03-01T05:25:36;101707.47;;;12.75
67509;BMP280;54354;44.724;11.284;2023-03-01T05:28:07;101711.31;;;12.70
67509;BMP280;54354;44.724;11.284;2023-03-01T05:30:35;101721.09;;;12.80
67509;BMP280;54354;44.724;11.284;2023-03-01T05:33:01;101707.41;;;12.78
67509;BMP280;54354;44.724;11.284;2023-03-01T05:35:26;101713.13;;;12.80
67509;BMP280;54354;44.724;11.284;2023-03-01T05:37:52;101717.28;;;12.81
67509;BMP280;54354;44.724;11.284;2023-03-01T05:40:20;101711.22;;;12.81
67509;BMP280;54354;44.724;11.284;2023-03-01T05:42:52;101703.59;;;12.83
67509;BMP280;54354;44.724;11.284;2023-03-01T05:45:19;101701.63;;;12.90
67509;BMP280;54354;44.724;11.284;2023-03-01T05:47:46;101697.13;;;12.87
67509;BMP280;54354;44.724;11.284;2023-03-01T05:52:48;101698.25;;;12.86
67509;BMP280;54354;44.724;11.284;2023-03-01T05:55:19;101687.94;;;12.92
67509;BMP280;54354;44.724;11.284;2023-03-01T05:57:45;101697.03;;;12.94
67509;BMP280;54354;44.724;11.284;2023-03-01T06:00:12;101694.00;;;12.92
67509;BMP280;54354;44.724;11.284;2023-03-01T06:02:39;101697.03;;;12.94
67509;BMP280;54354;44.724;11.284;2023-03-01T06:05:06;101704.28;;;12.90
67509;BMP280;54354;44.724;11.284;2023-03-01T06:07:33;101698.97;;;12.90
67509;BMP280;54354;44.724;11.284;2023-03-01T06:09:58;101703.88;;;12.92
67509;BMP280;54354;44.724;11.284;2023-03-01T06:12:24;101705.78;;;12.91
67509;BMP280;54354;44.724;11.284;2023-03-01T06:14:49;101711.47;;;12.93
67509;BMP280;54354;44.724;11.284;2023-03-01T06:17:15;101703.09;;;12.95
67509;BMP280;54354;44.724;11.284;2023-03-01T06:19:40;101709.19;;;12.95
67509;BMP280;54354;44.724;11.284;2023-03-01T06:22:06;101712.56;;;12.96
67509;BMP280;54354;44.724;11.284;2023-03-01T06:24:32;101712.94;;;12.98
67509;BMP280;54354;44.724;11.284;2023-03-01T06:26:58;101719.06;;;12.95
67509;BMP280;54354;44.724;11.284;2023-03-01T06:29:23;101722.41;;;12.99
67509;BMP280;54354;44.724;11.284;2023-03-01T06:31:49;101727.72;;;12.99
67509;BMP280;54354;44.724;11.284;2023-03-01T06:34:15;101719.75;;;12.99
67509;BMP280;54354;44.724;11.284;2023-03-01T06:36:40;101709.53;;;12.97
67509;BMP280;54354;44.724;11.284;2023-03-01T06:39:06;101711.41;;;13.01
67509;BMP280;54354;44.724;11.284;2023-03-01T06:41:33;101709.50;;;13.01
67509;BMP280;54354;44.724;11.284;2023-03-01T06:43:59;101718.97;;;13.02
67509;BMP280;54354;44.724;11.284;2023-03-01T06:46:25;101724.28;;;13.02
67509;BMP280;54354;44.724;11.284;2023-03-01T06:48:50;101724.25;;;13.06
67509;BMP280;54354;44.724;11.284;2023-03-01T06:51:16;101710.91;;;13.09
67509;BMP280;54354;44.724;11.284;2023-03-01T06:53:42;101723.06;;;13.10
67509;BMP280;54354;44.724;11.284;2023-03-01T06:56:07;101721.53;;;13.13
67509;BMP280;54354;44.724;11.284;2023-03-01T06:58:33;101721.94;;;13.11
67509;BMP280;54354;44.724;11.284;2023-03-01T07:00:58;101723.81;;;13.11
67509;BMP280;54354;44.724;11.284;2023-03-01T07:03:24;101707.09;;;13.10
67509;BMP280;54354;44.724;11.284;2023-03-01T07:05:50;101708.22;;;13.13
67509;BMP280;54354;44.724;11.284;2023-03-01T07:08:18;101697.59;;;13.13
67509;BMP280;54354;44.724;11.284;2023-03-01T07:10:44;101692.97;;;13.17
67509;BMP280;54354;44.724;11.284;2023-03-01T07:13:09;101692.97;;;13.20
67509;BMP280;54354;44.724;11.284;2023-03-01T07:15:35;101694.47;;;13.21
67509;BMP280;54354;44.724;11.284;2023-03-01T07:18:01;101701.28;;;13.22
67509;BMP280;54354;44.724;11.284;2023-03-01T07:20:26;101696.31;;;13.24
67509;BMP280;54354;44.724;11.284;2023-03-01T07:22:53;101698.97;;;13.24
67509;BMP280;54354;44.724;11.284;2023-03-01T07:25:19;101697.88;;;13.22
67509;BMP280;54354;44.724;11.284;2023-03-01T07:27:54;101691.75;;;13.25
67509;BMP280;54354;44.724;11.284;2023-03-01T07:30:20;101695.13;;;13.29
67509;BMP280;54354;44.724;11.284;2023-03-01T07:32:46;101692.81;;;13.31
67509;BMP280;54354;44.724;11.284;2023-03-01T07:35:12;101703.81;;;13.33
67509;BMP280;54354;44.724;11.284;2023-03-01T07:37:37;101700.41;;;13.33
67509;BMP280;54354;44.724;11.284;2023-03-01T07:40:03;101695.84;;;13.33
67509;BMP280;54354;44.724;11.284;2023-03-01T07:42:28;101703.06;;;13.33
67509;BMP280;54354;44.724;11.284;2023-03-01T07:44:54;101697.34;;;13.34
67509;BMP280;54354;44.724;11.284;2023-03-01T07:47:19;101695.41;;;13.38
67509;BMP280;54354;44.724;11.284;2023-03-01T07:49:45;101693.81;;;13.44
67509;BMP280;54354;44.724;11.284;2023-03-01T07:52:11;101694.94;;;13.47
67509;BMP280;54354;44.724;11.284;2023-03-01T07:54:37;101686.50;;;13.48
67509;BMP280;54354;44.724;11.284;2023-03-01T07:57:03;101690.34;;;13.47
67509;BMP280;54354;44.724;11.284;2023-03-01T07:59:28;101683.84;;;13.48
67509;BMP280;54354;44.724;11.284;2023-03-01T08:01:58;101682.00;;;13.45
67509;BMP280;54354;44.724;11.284;2023-03-01T08:04:23;101686.41;;;13.56
67509;BMP280;54354;44.724;11.284;2023-03-01T08:06:53;101679.53;;;13.58
67509;BMP280;54354;44.724;11.284;2023-03-01T08:09:19;101683.63;;;13.66
67509;BMP280;54354;44.724;11.284;2023-03-01T08:11:44;101686.53;;;13.75
67509;BMP280;54354;44.724;11.284;2023-03-01T08:14:10;101687.19;;;13.83
67509;BMP280;54354;44.724;11.284;2023-03-01T08:16:38;101683.69;;;13.90
67509;BMP280;54354;44.724;11.284;2023-03-01T08:19:09;101674.16;;;13.92
67509;BMP280;54354;44.724;11.284;2023-03-01T08:21:36;101668.63;;;14.03
67509;BMP280;54354;44.724;11.284;2023-03-01T08:24:02;101659.09;;;14.05
67509;BMP280;54354;44.724;11.284;2023-03-01T08:26:28;101667.78;;;14.10
67509;BMP280;54354;44.724;11.284;2023-03-01T08:28:54;101671.19;;;14.10
67509;BMP280;54354;44.724;11.284;2023-03-01T08:33:47;101663.22;;;14.06
67509;BMP280;54354;44.724;11.284;2023-03-01T08:36:26;101672.75;;;14.08
67509;BMP280;54354;44.724;11.284;2023-03-01T08:38:52;101685.19;;;14.14
67509;BMP280;54354;44.724;11.284;2023-03-01T08:41:19;101692.81;;;14.12
67509;BMP280;54354;44.724;11.284;2023-03-01T08:43:45;101682.25;;;14.09
67509;BMP280;54354;44.724;11.284;2023-03-01T08:46:11;101689.47;;;14.08
67509;BMP280;54354;44.724;11.284;2023-03-01T08:48:37;101685.66;;;14.09
67509;BMP280;54354;44.724;11.284;2023-03-01T08:51:11;101692.13;;;14.08
67509;BMP280;54354;44.724;11.284;2023-03-01T08:53:37;101690.94;;;14.13
67509;BMP280;54354;44.724;11.284;2023-03-01T08:56:03;101684.81;;;14.12
67509;BMP280;54354;44.724;11.284;2023-03-01T08:58:29;101675.00;;;14.09
67509;BMP280;54354;44.724;11.284;2023-03-01T09:00:55;101678.78;;;14.12
67509;BMP280;54354;44.724;11.284;2023-03-01T09:03:23;101663.13;;;14.14
67509;BMP280;54354;44.724;11.284;2023-03-01T09:05:49;101661.91;;;14.18
67509;BMP280;54354;44.724;11.284;2023-03-01T09:08:16;101663.09;;;14.17
67509;BMP280;54354;44.724;11.284;2023-03-01T09:10:41;101664.19;;;14.20
67509;BMP280;54354;44.724;11.284;2023-03-01T09:13:07;101661.88;;;14.22
67509;BMP280;54354;44.724;11.284;2023-03-01T09:15:33;101658.44;;;14.21
67509;BMP280;54354;44.724;11.284;2023-03-01T09:17:59;101643.56;;;14.24
67509;BMP280;54354;44.724;11.284;2023-03-01T09:20:24;101652.78;;;14.19
67509;BMP280;54354;44.724;11.284;2023-03-01T09:22:50;101643.69;;;14.17
67509;BMP280;54354;44.724;11.284;2023-03-01T09:25:15;101642.56;;;14.14
67509;BMP280;54354;44.724;11.284;2023-03-01T09:27:41;101641.06;;;14.13
67509;BMP280;54354;44.724;11.284;2023-03-01T09:30:08;101645.66;;;14.13
67509;BMP280;54354;44.724;11.284;2023-03-01T09:32:35;101644.44;;;14.17
67509;BMP280;54354;44.724;11.284;2023-03-01T09:35:00;101643.56;;;14.24
67509;BMP280;54354;44.724;11.284;2023-03-01T09:37:34;101636.00;;;14.22
67509;BMP280;54354;44.724;11.284;2023-03-01T09:39:59;101636.19;;;14.31
67509;BMP280;54354;44.724;11.284;2023-03-01T09:42:25;101634.28;;;14.32
67509;BMP280;54354;44.724;11.284;2023-03-01T09:45:00;101629.09;;;14.25
67509;BMP280;54354;44.724;11.284;2023-03-01T09:47:29;101633.63;;;14.28
67509;BMP280;54354;44.724;11.284;2023-03-01T09:52:46;101634.97;;;14.36
67509;BMP280;54354;44.724;11.284;2023-03-01T09:55:16;101645.41;;;14.27
67509;BMP280;54354;44.724;11.284;2023-03-01T09:57:48;101637.53;;;14.20
67509;BMP280;54354;44.724;11.284;2023-03-01T10:03:07;101628.31;;;14.24
67509;BMP280;54354;44.724;11.284;2023-03-01T10:08:47;101617.72;;;14.21
67509;BMP280;54354;44.724;11.284;2023-03-01T10:11:21;101620.47;;;14.17
67509;BMP280;54354;44.724;11.284;2023-03-01T10:19:03;101602.63;;;14.14
67509;BMP280;54354;44.724;11.284;2023-03-01T10:21:30;101601.59;;;14.08
67509;BMP280;54354;44.724;11.284;2023-03-01T10:24:05;101598.34;;;13.97
67509;BMP280;54354;44.724;11.284;2023-03-01T10:26:56;101602.81;;;14.03
67509;BMP280;54354;44.724;11.284;2023-03-01T10:32:10;101588.91;;;14.16
67509;BMP280;54354;44.724;11.284;2023-03-01T10:34:36;101590.47;;;14.13
67509;BMP280;54354;44.724;11.284;2023-03-01T10:37:16;101590.41;;;14.17
67509;BMP280;54354;44.724;11.284;2023-03-01T10:40:05;101596.69;;;14.26
67509;BMP280;54354;44.724;11.284;2023-03-01T10:42:46;101606.72;;;14.19
67509;BMP280;54354;44.724;11.284;2023-03-01T10:47:44;101613.50;;;14.23
67509;BMP280;54354;44.724;11.284;2023-03-01T10:50:21;101613.56;;;14.20
67509;BMP280;54354;44.724;11.284;2023-03-01T10:53:01;101629.91;;;14.22
67509;BMP280;54354;44.724;11.284;2023-03-01T10:55:35;101634.88;;;14.20
67509;BMP280;54354;44.724;11.284;2023-03-01T10:58:21;101654.69;;;14.19
67509;BMP280;54354;44.724;11.284;2023-03-01T11:00:54;101664.28;;;14.13
67509;BMP280;54354;44.724;11.284;2023-03-01T11:03:28;101666.38;;;14.01
67509;BMP280;54354;44.724;11.284;2023-03-01T11:06:21;101664.28;;;14.13
67509;BMP280;54354;44.724;11.284;2023-03-01T11:08:48;101661.75;;;14.05
67509;BMP280;54354;44.724;11.284;2023-03-01T11:11:30;101669.97;;;14.15
67509;BMP280;54354;44.724;11.284;2023-03-01T11:14:00;101668.81;;;14.16
67509;BMP280;54354;44.724;11.284;2023-03-01T11:16:28;101661.88;;;14.22
67509;BMP280;54354;44.724;11.284;2023-03-01T11:18:59;101655.50;;;14.16
67509;BMP280;54354;44.724;11.284;2023-03-01T11:21:26;101650.53;;;14.18
67509;BMP280;54354;44.724;11.284;2023-03-01T11:23:53;101656.19;;;14.20
67509;BMP280;54354;44.724;11.284;2023-03-01T11:26:19;101652.03;;;14.19
67509;BMP280;54354;44.724;11.284;2023-03-01T11:28:50;101646.00;;;14.15
67509;BMP280;54354;44.724;11.284;2023-03-01T11:31:18;101647.84;;;14.18
67509;BMP280;54354;44.724;11.284;2023-03-01T11:34:00;101645.06;;;14.25
67509;BMP280;54354;44.724;11.284;2023-03-01T11:36:35;101641.03;;;14.17
67509;BMP280;54354;44.724;11.284;2023-03-01T11:39:31;101636.19;;;14.31
67509;BMP280;54354;44.724;11.284;2023-03-01T11:44:35;101631.25;;;14.10
67509;BMP280;54354;44.724;11.284;2023-03-01T11:58:01;101634.94;;;13.93
67509;BMP280;54354;44.724;11.284;2023-03-01T12:03:31;101627.19;;;14.45
67509;BMP280;54354;44.724;11.284;2023-03-01T12:09:02;101629.84;;;13.78
67509;BMP280;54354;44.724;11.284;2023-03-01T12:20:21;101635.50;;;13.81
67509;BMP280;54354;44.724;11.284;2023-03-01T12:23:24;101629.47;;;13.76
67509;BMP280;54354;44.724;11.284;2023-03-01T12:25:57;101631.50;;;13.69
67509;BMP280;54354;44.724;11.284;2023-03-01T12:28:31;101610.75;;;13.57
67509;BMP280;54354;44.724;11.284;2023-03-01T12:33:49;101589.72;;;14.13
67509;BMP280;54354;44.724;11.284;2023-03-01T12:37:30;101557.03;;;13.65
67509;BMP280;54354;44.724;11.284;2023-03-01T12:47:30;101559.06;;;13.31
67509;BMP280;54354;44.724;11.284;2023-03-01T12:50:03;101560.63;;;13.28
67509;BMP280;54354;44.724;11.284;2023-03-01T12:52:40;101568.16;;;13.33
67509;BMP280;54354;44.724;11.284;2023-03-01T12:55:24;101571.19;;;13.32
67509;BMP280;54354;44.724;11.284;2023-03-01T12:58:20;101566.16;;;13.37
67509;BMP280;54354;44.724;11.284;2023-03-01T13:00:58;101551.38;;;13.36
67509;BMP280;54354;44.724;11.284;2023-03-01T13:18:04;101575.75;;;13.04
67509;BMP280;54354;44.724;11.284;2023-03-01T13:20:51;101572.78;;;12.98
67509;BMP280;54354;44.724;11.284;2023-03-01T13:31:01;101565.66;;;12.92
67509;BMP280;54354;44.724;11.284;2023-03-01T13:35:56;101563.06;;;12.88
67509;BMP280;54354;44.724;11.284;2023-03-01T13:38:45;101558.78;;;12.94
67509;BMP280;54354;44.724;11.284;2023-03-01T13:41:27;101551.66;;;12.84
67509;BMP280;54354;44.724;11.284;2023-03-01T13:44:12;101551.97;;;12.90
67509;BMP280;54354;44.724;11.284;2023-03-01T13:46:38;101553.47;;;12.94
67509;BMP280;54354;44.724;11.284;2023-03-01T13:49:04;101553.88;;;12.89
67509;BMP280;54354;44.724;11.284;2023-03-01T13:51:29;101547.84;;;12.89
67509;BMP280;54354;44.724;11.284;2023-03-01T13:53:56;101547.84;;;12.89
67509;BMP280;54354;44.724;11.284;2023-03-01T13:56:28;101551.19;;;12.93
67509;BMP280;54354;44.724;11.284;2023-03-01T13:58:58;101554.97;;;12.95
67509;BMP280;54354;44.724;11.284;2023-03-01T14:01:26;101555.22;;;13.59
67509;BMP280;54354;44.724;11.284;2023-03-01T14:03:52;101548.94;;;13.22
67509;BMP280;54354;44.724;11.284;2023-03-01T14:06:23;101552.94;;;13.07
67509;BMP280;54354;44.724;11.284;2023-03-01T14:09:00;101549.53;;;13.06
67509;BMP280;54354;44.724;11.284;2023-03-01T14:14:27;101538.03;;;13.13
67509;BMP280;54354;44.724;11.284;2023-03-01T14:17:12;101547.53;;;13.10
67509;BMP280;54354;44.724;11.284;2023-03-01T14:19:43;101547.72;;;12.96
67509;BMP280;54354;44.724;11.284;2023-03-01T14:24:39;101543.31;;;12.86
67509;BMP280;54354;44.724;11.284;2023-03-01T14:27:11;101548.19;;;12.91
67509;BMP280;54354;44.724;11.284;2023-03-01T14:29:39;101548.50;;;12.96
67509;BMP280;54354;44.724;11.284;2023-03-01T14:32:22;101551.81;;;13.04
67509;BMP280;54354;44.724;11.284;2023-03-01T14:34:50;101554.88;;;13.03
67509;BMP280;54354;44.724;11.284;2023-03-01T14:37:34;101546.50;;;13.04
67509;BMP280;54354;44.724;11.284;2023-03-01T14:40:04;101551.59;;;12.91
67509;BMP280;54354;44.724;11.284;2023-03-01T14:42:36;101554.22;;;12.95
67509;BMP280;54354;44.724;11.284;2023-03-01T14:45:02;101548.53;;;12.93
67509;BMP280;54354;44.724;11.284;2023-03-01T14:47:34;101551.66;;;12.88
67509;BMP280;54354;44.724;11.284;2023-03-01T14:50:07;101550.91;;;12.87
67509;BMP280;54354;44.724;11.284;2023-03-01T14:52:39;101552.44;;;12.85
67509;BMP280;54354;44.724;11.284;2023-03-01T14:55:07;101552.81;;;12.83
67509;BMP280;54354;44.724;11.284;2023-03-01T14:57:43;101547.13;;;12.85
67509;BMP280;54354;44.724;11.284;2023-03-01T15:00:16;101556.13;;;12.94
67509;BMP280;54354;44.724;11.284;2023-03-01T15:02:43;101562.88;;;12.99
67509;BMP280;54354;44.724;11.284;2023-03-01T15:05:09;101558.78;;;12.94
67509;BMP280;54354;44.724;11.284;2023-03-01T15:07:39;101548.63;;;12.86
67509;BMP280;54354;44.724;11.284;2023-03-01T15:10:07;101550.09;;;12.90
67509;BMP280;54354;44.724;11.284;2023-03-01T15:12:41;101546.75;;;12.83
67509;BMP280;54354;44.724;11.284;2023-03-01T15:15:33;101552.41;;;12.88
67509;BMP280;54354;44.724;11.284;2023-03-01T15:18:05;101550.81;;;12.94
67509;BMP280;54354;44.724;11.284;2023-03-01T15:20:33;101552.63;;;13.01
67509;BMP280;54354;44.724;11.284;2023-03-01T15:23:05;101541.53;;;13.06
67509;BMP280;54354;44.724;11.284;2023-03-01T15:25:44;101547.97;;;13.09
67509;BMP280;54354;44.724;11.284;2023-03-01T15:28:19;101542.66;;;13.09
67509;BMP280;54354;44.724;11.284;2023-03-01T15:30:45;101550.63;;;13.09
67509;BMP280;54354;44.724;11.284;2023-03-01T15:33:19;101542.69;;;13.05
67509;BMP280;54354;44.724;11.284;2023-03-01T15:35:50;101543.91;;;13.01
67509;BMP280;54354;44.724;11.284;2023-03-01T15:38:35;101538.44;;;13.11
67509;BMP280;54354;44.724;11.284;2023-03-01T15:41:31;101541.84;;;13.12
67509;BMP280;54354;44.724;11.284;2023-03-01T15:43:59;101541.47;;;13.10
67509;BMP280;54354;44.724;11.284;2023-03-01T15:46:33;101541.59;;;13.03
67509;BMP280;54354;44.724;11.284;2023-03-01T15:51:47;101551.50;;;12.98